Portada
METAR-TAF:

METAR-TAF

Aeroports :

Valença, França

latitud: 44-54-58N, longitud: 4-58-06E, altitud: 160 m

Observació

L'informe es va fer fa 10 hores i 52 minuts, a les 18:00 UTC
Vent 11 kt del Nord/Nord-Est
Temperatura 9°C
Humitat 71%
Pressió 1027 hPa
Visibilitat 10 km o més
Escasses núvols a una alçada de 4100 ft
Cel ennuvolat a una alçada de 4700 ft
Cel cobert a una alçada de 5800 ft

METAR: LFLU 191800Z AUTO 02011KT 9999 FEW041 BKN047 OVC058 09/04 Q1027

Hora: 05:52 (04:52 UTC)


TAF: manca

Observacions i pronòstics meteorològics de més de 4000 aeroports (METAR i TAF).

Les estacions disponibles són els punts grocs i vermells al mapa.

Posi el ratolí al punt desitjat per veure el nom de l'estació.

Feu clic per veure les observacions i els pronòstics meteorològics.

Per canviar el mapa: feu clic els botons verds amb una creu de color negre per apropar; al botó verd amb un guió per allunyar la imatge; o en les fletxes verdes per a mapes adjacents.


METAR-TAF: